Map Display - LFMN to EGSS
(last flight recorded 19-08-2019, 14:20 - Adrian Smith)

Aircraft Weights    Units : Maximums
Passengers :   100  
Cargo : kg 3,834 kg
Suggested Fuel Load : kg 8,326 kg
 
     
 
Dry Operating : 24,800 kg    
Total Payload : 3,581 kg 11,715 kg
 
Take Off : 34,427 kg 44,225 kg
 
Expected Landing : 30,753 kg 38,329 kg

Stuart Sutton-Young,  B463 ,  G-BRAB,  In Hangar.

Route Distance Previous
Flights
Average
Duration
Average
Fuel Flow
Average
Fuel Use
LFMN - Nice/Cote d`Azur, France
EGSS - Stansted, London
569 nm 2 01:54 1,977 kg/h 3,674 kg

Current weather :-
2019/08/19 21:26
TAF LFMN 192000Z 1921/2103 VRB04KT CAVOK
TEMPO 1923/2007 BKN014
BECMG 2008/2010 16008KT
BECMG 2017/2019 VRB04KT
2019/08/19 18:09
TAF EGSS 191659Z 1918/2024 24010KT 9999 SCT035 PROB30
TEMPO 1918/1920 7000 SHRA PROB30 2002/2007 6000

Back to Virtual Airline